Time;durP1;ratioP1;P1;durP2;ratioP2;P2;SDS_P1;SDS_P2;PMS_P1;PMS_P2;Temp;Humidity;BMP_temperature;BMP_pressure;BME280_temperature;BME280_humidity;BME280_pressure;Samples;Min_cycle;Max_cycle;Signal;HPM_P1;HPM_P2
2022/07/21 00:02:21;;;;;;;6.65;3.05;;;23.80;47.70;;;;;;4988008;28;20026;-68
2022/07/21 00:04:46;;;;;;;6.85;3.25;;;23.70;47.80;;;;;;5000562;28;20021;-68
2022/07/21 00:07:12;;;;;;;6.10;3.15;;;23.70;47.80;;;;;;5003258;28;20030;-68
2022/07/21 00:09:37;;;;;;;9.35;3.28;;;23.70;47.80;;;;;;5011179;28;20460;-68
2022/07/21 00:12:04;;;;;;;4.45;2.50;;;23.60;47.90;;;;;;4999271;28;20031;-69
2022/07/21 00:14:30;;;;;;;5.03;2.85;;;23.60;47.70;;;;;;5009446;28;20022;-68
2022/07/21 00:16:56;;;;;;;6.65;2.90;;;23.50;47.80;;;;;;5005443;28;20032;-68
2022/07/21 00:19:21;;;;;;;7.78;3.30;;;23.50;48.00;;;;;;5002414;28;20022;-68
2022/07/21 00:21:47;;;;;;;8.70;2.60;;;23.50;48.10;;;;;;5011696;28;20470;-68
2022/07/21 00:24:13;;;;;;;5.50;3.20;;;23.60;48.20;;;;;;4999414;28;20053;-68
2022/07/21 00:26:38;;;;;;;6.93;3.20;;;23.60;48.40;;;;;;5008048;28;20068;-68
2022/07/21 00:29:04;;;;;;;6.60;3.30;;;23.60;48.80;;;;;;5005351;28;20084;-68
2022/07/21 00:31:30;;;;;;;5.88;3.28;;;23.60;48.60;;;;;;4983472;28;20053;-69
2022/07/21 00:33:55;;;;;;;6.68;3.30;;;23.60;48.70;;;;;;5011680;28;20025;-68
2022/07/21 00:36:21;;;;;;;7.82;3.17;;;23.60;48.80;;;;;;4999989;28;20431;-68
2022/07/21 00:38:47;;;;;;;9.45;3.72;;;23.60;48.90;;;;;;5005983;28;20053;-68
2022/07/21 00:41:14;;;;;;;8.43;3.10;;;23.50;49.10;;;;;;5007037;28;20022;-68
2022/07/21 00:43:40;;;;;;;5.07;3.08;;;23.60;49.10;;;;;;4999573;28;20378;-67
2022/07/21 00:46:05;;;;;;;7.20;3.58;;;23.50;49.00;;;;;;5011489;28;20033;-68
2022/07/21 00:48:31;;;;;;;4.93;3.28;;;23.50;49.10;;;;;;5000911;28;20030;-68
2022/07/21 00:50:56;;;;;;;5.38;2.97;;;23.50;49.10;;;;;;5004928;28;20030;-67
2022/07/21 00:53:22;;;;;;;7.88;3.17;;;23.50;48.80;;;;;;5008154;28;20033;-67
2022/07/21 00:55:48;;;;;;;7.97;3.22;;;23.50;48.70;;;;;;4998843;28;20450;-68
2022/07/21 00:58:13;;;;;;;6.72;3.22;;;23.50;48.60;;;;;;4994708;28;20096;-68
2022/07/21 01:00:40;;;;;;;5.32;2.85;;;23.70;48.40;;;;;;5004199;28;20455;-69
2022/07/21 01:03:06;;;;;;;6.88;3.67;;;23.70;48.30;;;;;;5002762;28;20026;-69
2022/07/21 01:05:31;;;;;;;7.25;3.33;;;23.60;48.50;;;;;;5009518;28;20018;-68
2022/07/21 01:08:03;;;;;;;12.05;3.83;;;23.60;48.40;;;;;;4997275;28;20101;-69
2022/07/21 01:10:30;;;;;;;7.35;2.92;;;23.50;48.70;;;;;;5008590;28;20070;-69
2022/07/21 01:12:57;;;;;;;6.50;3.30;;;23.50;48.90;;;;;;5004012;28;20472;-69
2022/07/21 01:15:24;;;;;;;5.07;3.10;;;23.50;48.80;;;;;;5001207;28;20504;-69
2022/07/21 01:17:50;;;;;;;8.95;3.70;;;23.50;49.20;;;;;;5009218;28;20109;-69
2022/07/21 01:20:19;;;;;;;15.05;4.30;;;23.50;49.50;;;;;;4998702;28;20024;-68
2022/07/21 01:22:47;;;;;;;10.60;3.70;;;23.50;50.40;;;;;;5006054;28;20069;-69
2022/07/21 01:25:13;;;;;;;14.48;3.92;;;23.40;50.70;;;;;;5006351;28;20018;-69
2022/07/21 01:27:39;;;;;;;8.65;3.55;;;23.30;50.60;;;;;;4997924;28;20378;-67
2022/07/21 01:30:10;;;;;;;6.47;3.63;;;23.10;51.40;;;;;;5010486;28;20026;-67
2022/07/21 01:32:39;;;;;;;8.00;4.20;;;23.00;51.80;;;;;;5000888;28;20022;-67
2022/07/21 01:35:08;;;;;;;6.40;3.70;;;23.00;51.90;;;;;;5003207;28;20424;-67
2022/07/21 01:37:40;;;;;;;11.00;4.20;;;22.90;52.20;;;;;;5007891;28;20125;-68
2022/07/21 01:42:53;;;;;;;5.00;3.88;;;22.80;52.50;;;;;;5004816;28;20526;-68
2022/07/21 01:45:20;;;;;;;7.78;3.50;;;22.70;52.40;;;;;;4989329;28;20038;-69
2022/07/21 01:47:46;;;;;;;4.97;3.45;;;22.80;52.50;;;;;;4997876;28;20033;-68
2022/07/21 01:50:12;;;;;;;11.10;3.17;;;22.70;52.60;;;;;;4982703;28;20021;-67
2022/07/21 01:52:38;;;;;;;8.00;3.30;;;22.60;52.30;;;;;;5006462;28;20037;-69
2022/07/21 01:55:04;;;;;;;6.18;3.78;;;22.50;52.30;;;;;;4987011;28;20121;-67
2022/07/21 01:57:30;;;;;;;7.32;3.28;;;22.50;52.60;;;;;;4998532;28;20564;-67
2022/07/21 01:59:55;;;;;;;9.25;3.33;;;22.60;53.10;;;;;;4992594;28;20026;-67
2022/07/21 02:02:21;;;;;;;6.65;3.22;;;22.50;53.20;;;;;;4998361;28;20018;-67
2022/07/21 02:04:50;;;;;;;7.38;3.40;;;22.50;52.90;;;;;;5007529;28;20106;-68
2022/07/21 02:07:16;;;;;;;5.90;2.90;;;22.50;53.00;;;;;;5007181;28;20034;-67
2022/07/21 02:09:42;;;;;;;5.50;3.40;;;22.50;53.20;;;;;;5001034;28;20049;-69
2022/07/21 02:12:08;;;;;;;12.00;3.90;;;22.50;52.80;;;;;;5012537;28;20037;-68
2022/07/21 02:14:34;;;;;;;7.00;3.80;;;22.50;52.90;;;;;;4984481;28;20021;-68
2022/07/21 02:16:59;;;;;;;5.47;3.40;;;22.50;52.60;;;;;;5004408;28;20068;-68
2022/07/21 02:19:25;;;;;;;5.03;3.30;;;22.50;52.30;;;;;;5006712;28;20364;-68
2022/07/21 02:21:51;;;;;;;6.45;3.80;;;22.50;52.20;;;;;;4997220;28;20048;-69
2022/07/21 02:24:16;;;;;;;7.32;3.67;;;22.50;51.80;;;;;;5009153;28;20033;-69
2022/07/21 02:26:43;;;;;;;6.78;3.53;;;22.60;51.40;;;;;;5000894;28;20057;-67
2022/07/21 02:29:08;;;;;;;10.18;4.07;;;22.70;50.90;;;;;;5000050;28;20026;-68
2022/07/21 02:31:34;;;;;;;6.00;3.50;;;22.70;51.00;;;;;;4990435;28;20022;-68
2022/07/21 02:34:00;;;;;;;6.63;3.38;;;22.80;50.60;;;;;;4996689;28;20026;-68
2022/07/21 02:36:25;;;;;;;10.50;3.65;;;22.80;50.60;;;;;;5008302;28;20032;-68
2022/07/21 02:38:51;;;;;;;5.93;3.60;;;22.80;51.00;;;;;;5001165;28;20460;-68
2022/07/21 02:41:17;;;;;;;7.95;3.63;;;22.80;51.10;;;;;;5000443;28;20093;-68
2022/07/21 02:43:42;;;;;;;8.57;4.20;;;22.80;51.30;;;;;;5007699;28;20057;-68
2022/07/21 02:46:08;;;;;;;8.65;4.03;;;22.80;51.70;;;;;;4996354;28;20060;-68
2022/07/21 02:48:34;;;;;;;8.50;4.50;;;22.70;52.00;;;;;;5001824;28;20022;-67
2022/07/21 02:50:59;;;;;;;8.90;4.05;;;22.60;52.40;;;;;;5002551;28;20026;-68
2022/07/21 02:53:25;;;;;;;9.65;4.75;;;22.60;52.90;;;;;;5006650;28;20029;-68
2022/07/21 02:55:52;;;;;;;10.90;5.10;;;22.60;53.00;;;;;;4996203;28;20032;-70
2022/07/21 02:58:27;;;;;;;8.75;5.35;;;22.70;53.30;;;;;;5040739;22;20037;-68
2022/07/21 03:00:56;;;;;;;11.18;5.47;;;22.70;53.20;;;;;;5024360;28;20021;-69
2022/07/21 03:03:25;;;;;;;9.65;5.45;;;22.80;53.60;;;;;;5045000;28;20479;-70
2022/07/21 03:05:50;;;;;;;11.48;5.78;;;22.90;53.60;;;;;;5017769;28;20029;-69
2022/07/21 03:08:17;;;;;;;24.88;12.13;;;22.90;53.80;;;;;;5028813;28;20021;-71
2022/07/21 03:10:43;;;;;;;14.70;6.53;;;23.00;54.10;;;;;;5039513;28;20017;-71
2022/07/21 03:13:08;;;;;;;23.00;8.52;;;23.00;54.20;;;;;;5040487;28;20033;-72
2022/07/21 03:15:34;;;;;;;14.73;7.80;;;23.20;54.30;;;;;;5028861;28;20423;-70
2022/07/21 03:18:00;;;;;;;43.30;18.52;;;23.20;54.50;;;;;;5034306;28;20499;-69
2022/07/21 03:20:30;;;;;;;22.77;11.73;;;23.30;54.70;;;;;;5046318;28;20036;-69
2022/07/21 03:22:56;;;;;;;25.90;12.52;;;23.40;54.80;;;;;;5041119;28;20032;-69
2022/07/21 03:25:22;;;;;;;16.10;8.73;;;23.40;55.10;;;;;;5038419;28;20030;-69
2022/07/21 03:27:48;;;;;;;13.48;7.75;;;23.50;55.00;;;;;;5046930;28;20037;-70
2022/07/21 03:30:15;;;;;;;14.80;8.30;;;23.40;55.30;;;;;;5035360;28;20029;-69
2022/07/21 03:32:41;;;;;;;19.50;8.02;;;23.50;55.20;;;;;;5043804;28;20033;-69
2022/07/21 03:35:10;;;;;;;12.88;7.65;;;23.60;55.20;;;;;;5042497;28;20039;-69
2022/07/21 03:38:05;;;;;;;17.40;7.57;;;23.60;55.30;;;;;;5035569;28;20048;-71
2022/07/21 03:40:33;;;;;;;13.25;7.50;;;23.70;55.20;;;;;;5010629;28;20540;-69
2022/07/21 03:43:00;;;;;;;13.77;8.05;;;23.80;55.30;;;;;;5041080;28;20037;-69
2022/07/21 03:45:29;;;;;;;22.13;7.95;;;23.80;55.40;;;;;;5045071;28;20125;-69
2022/07/21 03:47:56;;;;;;;12.43;7.65;;;23.80;55.50;;;;;;5033702;28;20116;-70
2022/07/21 03:50:22;;;;;;;22.92;7.85;;;23.90;55.30;;;;;;5046208;28;20379;-71
2022/07/21 03:52:48;;;;;;;13.95;7.68;;;24.20;54.80;;;;;;5039383;28;20036;-70
2022/07/21 03:55:17;;;;;;;15.07;7.78;;;24.40;54.00;;;;;;5038790;28;20510;-69
2022/07/21 03:57:48;;;;;;;15.65;7.70;;;24.60;53.60;;;;;;5028513;28;20433;-69
2022/07/21 04:00:16;;;;;;;;;;;24.40;53.90;;;;;;5019672;28;20017;-68
2022/07/21 04:02:42;;;;;;;12.20;7.55;;;24.30;54.30;;;;;;5042224;28;19909;-69
2022/07/21 04:05:10;;;;;;;16.73;7.85;;;24.10;55.10;;;;;;5042236;28;20037;-69
2022/07/21 04:07:36;;;;;;;13.10;7.35;;;24.00;55.70;;;;;;5035173;28;20029;-69
2022/07/21 04:10:02;;;;;;;11.40;7.70;;;23.90;56.00;;;;;;5047673;28;20048;-69
2022/07/21 04:12:28;;;;;;;12.35;7.40;;;23.90;56.30;;;;;;5036570;28;20025;-67
2022/07/21 04:14:55;;;;;;;10.65;7.18;;;23.70;56.60;;;;;;5023617;28;20025;-69
2022/07/21 04:17:21;;;;;;;12.13;7.22;;;23.70;57.00;;;;;;5043171;28;20040;-70
2022/07/21 04:19:47;;;;;;;13.32;7.60;;;23.70;57.20;;;;;;5034157;28;20487;-69
2022/07/21 04:22:13;;;;;;;11.88;7.60;;;23.60;57.40;;;;;;5047285;28;20028;-69
2022/07/21 04:24:38;;;;;;;11.65;7.80;;;23.70;57.20;;;;;;5038056;28;20524;-69
2022/07/21 04:27:04;;;;;;;14.65;8.57;;;23.70;57.40;;;;;;5021634;28;20022;-67
2022/07/21 04:29:29;;;;;;;14.07;7.80;;;23.80;57.10;;;;;;5044746;28;20025;-69
2022/07/21 04:31:55;;;;;;;16.17;8.02;;;23.90;57.30;;;;;;5034066;28;20491;-69
2022/07/21 04:34:21;;;;;;;15.57;8.38;;;24.00;56.60;;;;;;5045612;28;20034;-69
2022/07/21 04:36:46;;;;;;;12.68;7.47;;;24.20;56.30;;;;;;5039235;28;20017;-69
2022/07/21 04:39:12;;;;;;;11.90;7.22;;;;;;;;;;5037878;28;20028;-69
2022/07/21 04:41:38;;;;;;;17.33;7.13;;;24.90;54.30;;;;;;5046064;28;20028;-72
2022/07/21 04:44:04;;;;;;;9.68;7.63;;;;;;;;;;5016091;28;20037;-70
2022/07/21 04:46:30;;;;;;;12.60;6.88;;;;;;;;;;5044565;28;20104;-70
2022/07/21 04:48:56;;;;;;;12.30;8.00;;;;;;;;;;5039151;28;20056;-71
2022/07/21 04:51:22;;;;;;;13.02;7.18;;;;;;;;;;5037268;28;20412;-71
2022/07/21 04:53:48;;;;;;;14.23;7.50;;;;;;;;;;5050462;28;20029;-71
2022/07/21 04:56:14;;;;;;;13.95;7.32;;;;;;;;;;5038457;28;20027;-71
2022/07/21 04:58:39;;;;;;;12.13;6.47;;;31.20;39.40;;;;;;5045748;28;20029;-70
2022/07/21 05:01:05;;;;;;;16.23;7.28;;;31.50;39.10;;;;;;5045061;28;20071;-70
2022/07/21 05:03:31;;;;;;;9.77;6.40;;;;;;;;;;5039589;28;20108;-71
2022/07/21 05:05:57;;;;;;;15.20;6.90;;;34.00;34.40;;;;;;5050582;28;20059;-71
2022/07/21 05:08:22;;;;;;;8.68;6.63;;;34.70;33.40;;;;;;5038000;28;20424;-69
2022/07/21 05:10:48;;;;;;;8.95;5.30;;;35.40;32.40;;;;;;5045370;28;20049;-69
2022/07/21 05:13:13;;;;;;;10.93;5.85;;;36.50;30.90;;;;;;5045825;28;20031;-70
2022/07/21 05:15:39;;;;;;;11.50;5.60;;;37.30;29.60;;;;;;5020477;28;20025;-70
2022/07/21 05:18:08;;;;;;;11.68;6.03;;;37.90;29.10;;;;;;5050187;28;20506;-70
2022/07/21 05:20:33;;;;;;;10.23;5.10;;;37.90;28.20;;;;;;5040275;28;20082;-71
2022/07/21 05:22:59;;;;;;;8.52;5.85;;;38.50;28.10;;;;;;5043621;28;20037;-70
2022/07/21 05:25:24;;;;;;;10.00;5.13;;;39.10;27.60;;;;;;5047128;28;20021;-71
2022/07/21 05:27:50;;;;;;;18.00;5.57;;;39.40;26.80;;;;;;5036180;28;20430;-70
2022/07/21 05:30:16;;;;;;;6.00;4.68;;;;;;;;;;5049610;28;20025;-72
2022/07/21 05:32:42;;;;;;;8.13;5.45;;;;;;;;;;5041207;28;20033;-70
2022/07/21 05:35:10;;;;;;;10.13;4.45;;;40.00;25.70;;;;;;5042145;28;20025;-71
2022/07/21 05:37:41;;;;;;;10.30;4.30;;;40.30;25.30;;;;;;5032428;28;20140;-71
2022/07/21 05:40:08;;;;;;;11.20;4.47;;;40.40;24.70;;;;;;5051219;28;20029;-71
2022/07/21 05:42:34;;;;;;;8.10;4.15;;;40.10;24.60;;;;;;5044418;28;20029;-70
2022/07/21 05:45:00;;;;;;;6.50;4.00;;;39.70;25.10;;;;;;5031785;28;20029;-70
2022/07/21 05:47:26;;;;;;;4.63;3.72;;;39.60;25.30;;;;;;5038831;28;20022;-71
2022/07/21 05:49:52;;;;;;;7.85;4.10;;;39.70;25.00;;;;;;5047655;28;20071;-71
2022/07/21 05:52:17;;;;;;;9.90;4.10;;;39.70;25.00;;;;;;5015287;28;20025;-71
2022/07/21 05:54:43;;;;;;;7.38;4.68;;;40.50;24.20;;;;;;5040285;28;20052;-69
2022/07/21 05:57:09;;;;;;;7.35;3.72;;;40.70;24.20;;;;;;5047275;28;20441;-72
2022/07/21 05:59:34;;;;;;;7.30;4.18;;;40.70;24.10;;;;;;5018019;28;20029;-69
2022/07/21 06:02:00;;;;;;;9.23;4.38;;;41.40;23.20;;;;;;5048908;28;20079;-70
2022/07/21 06:04:26;;;;;;;7.80;4.57;;;;;;;;;;5038024;28;20466;-70
2022/07/21 06:06:55;;;;;;;7.30;4.45;;;;;;;;;;5043944;28;20029;-70
2022/07/21 06:09:21;;;;;;;6.70;3.65;;;;;;;;;;5044784;28;20020;-69
2022/07/21 06:11:47;;;;;;;6.88;4.55;;;;;;;;;;5036154;28;20026;-70
2022/07/21 06:14:13;;;;;;;14.32;4.78;;;41.40;22.80;;;;;;5048739;28;20028;-69
2022/07/21 06:16:38;;;;;;;9.05;5.13;;;41.20;23.10;;;;;;5037704;28;20640;-70
2022/07/21 06:19:06;;;;;;;8.05;4.43;;;41.40;23.00;;;;;;5040963;28;20022;-69
2022/07/21 06:21:32;;;;;;;6.60;4.30;;;42.20;22.00;;;;;;5046908;28;20025;-71
2022/07/21 06:23:58;;;;;;;7.15;3.65;;;42.70;21.20;;;;;;5018079;28;20026;-68
2022/07/21 06:26:24;;;;;;;6.20;4.00;;;42.80;21.10;;;;;;5044039;28;20245;-69
2022/07/21 06:28:49;;;;;;;8.57;4.68;;;42.40;21.70;;;;;;5021981;28;20033;-70
2022/07/21 06:31:15;;;;;;;17.08;4.70;;;43.00;20.80;;;;;;5038247;28;20143;-70
2022/07/21 06:33:40;;;;;;;7.22;4.88;;;42.90;20.60;;;;;;5046321;28;20040;-70
2022/07/21 06:36:07;;;;;;;12.88;5.07;;;42.60;21.10;;;;;;5033745;28;20434;-70
2022/07/21 06:38:33;;;;;;;6.50;4.18;;;43.10;20.40;;;;;;5024948;28;20029;-71
2022/07/21 06:40:58;;;;;;;6.50;4.30;;;41.40;22.10;;;;;;5040146;28;20087;-71
2022/07/21 06:43:24;;;;;;;9.60;4.57;;;41.40;22.50;;;;;;5036635;28;20037;-70
2022/07/21 06:45:50;;;;;;;10.75;5.35;;;41.80;21.50;;;;;;5046608;28;20067;-69
2022/07/21 06:48:16;;;;;;;8.57;5.63;;;39.40;24.00;;;;;;5034995;28;20025;-71
2022/07/21 06:50:42;;;;;;;8.32;4.75;;;39.20;24.30;;;;;;5044034;28;20029;-74
2022/07/21 06:53:08;;;;;;;6.97;4.72;;;39.80;24.40;;;;;;5043196;28;20067;-74
2022/07/21 06:55:35;;;;;;;9.85;5.05;;;40.60;22.90;;;;;;5037059;28;20108;-74
2022/07/21 06:58:19;;;;;;;9.02;5.15;;;40.00;23.10;;;;;;5047611;28;20479;-74
2022/07/21 07:00:46;;;;;;;8.40;4.85;;;39.20;24.40;;;;;;5039982;28;20033;-74
2022/07/21 07:03:13;;;;;;;7.50;4.90;;;40.60;22.90;;;;;;5052429;28;20029;-72
2022/07/21 07:05:39;;;;;;;13.40;4.93;;;40.70;22.40;;;;;;5034416;28;20056;-73
2022/07/21 07:08:05;;;;;;;7.68;4.90;;;39.90;23.30;;;;;;5029688;28;20087;-73
2022/07/21 07:10:31;;;;;;;9.65;5.32;;;38.50;24.60;;;;;;5038225;28;20028;-73
2022/07/21 07:12:56;;;;;;;13.75;7.78;;;37.50;25.80;;;;;;5024152;28;20021;-72
2022/07/21 07:15:23;;;;;;;10.00;5.35;;;37.50;26.00;;;;;;5044243;28;20025;-74
2022/07/21 07:17:49;;;;;;;9.90;6.32;;;36.80;26.50;;;;;;5034199;28;20037;-72
2022/07/21 07:20:15;;;;;;;20.02;14.82;;;36.10;27.80;;;;;;5047514;28;20024;-71
2022/07/21 07:22:40;;;;;;;8.27;5.63;;;37.20;27.20;;;;;;5038755;28;20028;-71
2022/07/21 07:25:07;;;;;;;16.80;9.82;;;38.70;25.00;;;;;;5040115;28;20073;-72
2022/07/21 07:27:32;;;;;;;15.45;5.32;;;40.00;23.50;;;;;;5027228;28;20028;-72
2022/07/21 07:29:58;;;;;;;13.98;6.68;;;41.30;22.00;;;;;;5034806;28;20025;-71
2022/07/21 07:32:23;;;;;;;16.40;8.15;;;41.90;21.60;;;;;;5046092;28;20029;-71
2022/07/21 07:34:49;;;;;;;19.70;12.57;;;42.30;21.20;;;;;;5022390;28;20560;-74
2022/07/21 07:37:15;;;;;;;10.55;5.28;;;43.10;20.20;;;;;;5038810;28;20056;-72
2022/07/21 07:39:40;;;;;;;11.93;6.80;;;41.90;21.30;;;;;;5029471;28;20029;-72
2022/07/21 07:42:06;;;;;;;15.05;10.55;;;42.30;21.30;;;;;;5034868;28;20025;-75
2022/07/21 07:44:33;;;;;;;16.00;9.25;;;42.50;20.70;;;;;;5045368;28;20021;-72
2022/07/21 07:47:01;;;;;;;13.95;9.32;;;43.10;20.60;;;;;;5037402;28;20049;-73
2022/07/21 07:49:30;;;;;;;8.02;5.53;;;42.90;20.50;;;;;;5044676;28;20503;-72
2022/07/21 07:51:56;;;;;;;8.10;5.78;;;43.60;19.90;;;;;;5034678;28;20033;-72
2022/07/21 07:54:22;;;;;;;14.15;6.93;;;44.20;19.70;;;;;;5045976;28;20018;-71
2022/07/21 07:56:47;;;;;;;7.18;4.70;;;44.60;19.20;;;;;;5039344;28;20028;-72
2022/07/21 07:59:13;;;;;;;6.57;4.30;;;44.30;19.60;;;;;;5037837;28;20025;-71
2022/07/21 08:01:39;;;;;;;11.88;4.95;;;44.90;18.90;;;;;;5046529;28;20159;-72
2022/07/21 08:04:05;;;;;;;6.47;5.38;;;45.00;18.60;;;;;;5034458;28;20026;-72
2022/07/21 08:06:30;;;;;;;9.88;6.45;;;44.90;18.80;;;;;;5043191;28;20028;-72
2022/07/21 08:08:56;;;;;;;9.43;4.60;;;44.60;19.20;;;;;;5039696;28;20021;-72
2022/07/21 08:11:22;;;;;;;7.13;4.70;;;44.40;19.20;;;;;;5038028;28;20033;-72
2022/07/21 08:13:47;;;;;;;7.65;4.53;;;45.00;18.70;;;;;;5047479;28;20031;-72
2022/07/21 08:16:15;;;;;;;8.05;4.30;;;45.00;18.90;;;;;;5034786;28;20446;-72
2022/07/21 08:18:41;;;;;;;8.73;4.90;;;44.60;19.10;;;;;;5042588;28;20024;-73
2022/07/21 08:21:07;;;;;;;6.68;5.10;;;44.60;18.90;;;;;;5042081;28;20045;-72
2022/07/21 08:23:33;;;;;;;24.17;5.55;;;44.50;19.00;;;;;;5018265;28;20060;-72
2022/07/21 08:25:58;;;;;;;7.55;4.72;;;44.10;19.40;;;;;;5047592;28;20075;-71
2022/07/21 08:28:24;;;;;;;11.50;5.70;;;43.70;19.50;;;;;;5039380;28;20032;-72
2022/07/21 08:30:49;;;;;;;9.25;4.97;;;43.40;20.30;;;;;;5046868;28;20036;-72
2022/07/21 08:33:15;;;;;;;6.28;5.03;;;43.50;20.00;;;;;;5047545;28;20036;-72
2022/07/21 08:35:41;;;;;;;7.90;5.07;;;42.80;20.40;;;;;;5039346;28;20029;-74
2022/07/21 08:38:08;;;;;;;9.10;4.90;;;42.50;21.10;;;;;;5050127;28;20072;-72
2022/07/21 08:40:37;;;;;;;9.20;4.93;;;42.20;21.40;;;;;;5041055;28;20025;-70
2022/07/21 08:43:04;;;;;;;7.20;4.78;;;42.30;21.20;;;;;;5043607;28;20029;-70
2022/07/21 08:45:30;;;;;;;5.53;5.00;;;42.10;21.40;;;;;;5048274;28;20040;-73
2022/07/21 08:47:59;;;;;;;11.45;4.90;;;42.70;21.10;;;;;;5035713;28;20124;-74
2022/07/21 08:50:28;;;;;;;9.30;4.97;;;42.50;20.80;;;;;;5039640;28;20399;-71
2022/07/21 08:52:53;;;;;;;13.35;8.05;;;42.70;21.00;;;;;;5044729;28;20025;-74
2022/07/21 08:55:19;;;;;;;11.05;4.90;;;42.40;20.90;;;;;;5047146;28;20070;-71
2022/07/21 08:57:51;;;;;;;5.15;4.63;;;42.00;21.30;;;;;;5037838;28;20400;-76
2022/07/21 09:00:17;;;;;;;26.33;15.73;;;41.70;21.80;;;;;;5005317;28;20017;-71
2022/07/21 09:02:42;;;;;;;10.43;7.47;;;41.90;21.70;;;;;;5054102;28;20032;-72
2022/07/21 09:05:10;;;;;;;6.85;5.22;;;41.80;22.00;;;;;;5023831;28;20034;-73
2022/07/21 09:07:56;;;;;;;7.68;6.57;;;41.30;22.50;;;;;;5048681;28;20459;-72
2022/07/21 09:10:23;;;;;;;11.63;6.93;;;40.90;22.60;;;;;;5024186;28;20021;-73
2022/07/21 09:12:54;;;;;;;10.02;5.70;;;40.40;23.40;;;;;;5045470;28;20030;-74
2022/07/21 09:15:22;;;;;;;11.18;7.20;;;40.50;23.70;;;;;;5047136;28;20645;-72
2022/07/21 09:18:15;;;;;;;9.57;6.10;;;40.90;22.80;;;;;;5036578;28;20036;-73
2022/07/21 09:20:53;;;;;;;9.48;5.13;;;41.10;22.80;;;;;;5046616;28;20021;-74
2022/07/21 09:23:22;;;;;;;8.95;5.07;;;40.50;23.30;;;;;;5033851;28;20391;-73
2022/07/21 09:25:53;;;;;;;8.25;5.28;;;40.40;23.90;;;;;;5050228;28;20494;-72
2022/07/21 09:28:23;;;;;;;6.43;4.70;;;39.90;24.20;;;;;;5019781;28;20024;-74
2022/07/21 09:30:55;;;;;;;39.78;28.00;;;39.90;24.10;;;;;;5045384;28;20057;-72
2022/07/21 09:33:34;;;;;;;10.63;5.78;;;39.60;25.10;;;;;;5029006;28;20120;-72
2022/07/21 09:36:20;;;;;;;11.25;6.10;;;39.20;25.70;;;;;;5037030;28;20049;-71
2022/07/21 09:38:54;;;;;;;6.28;4.82;;;39.10;26.00;;;;;;5043825;28;20040;-70
2022/07/21 09:41:22;;;;;;;11.90;5.50;;;38.30;26.90;;;;;;5046474;28;20056;-72
2022/07/21 09:43:50;;;;;;;7.38;5.22;;;37.70;28.00;;;;;;5018632;28;20025;-71
2022/07/21 09:46:17;;;;;;;8.43;6.43;;;37.50;28.40;;;;;;5048777;28;20022;-74
2022/07/21 09:48:45;;;;;;;13.15;6.13;;;37.40;28.70;;;;;;5040026;28;20379;-74
2022/07/21 09:51:27;;;;;;;14.20;5.95;;;37.50;28.60;;;;;;5041362;28;20029;-73
2022/07/21 09:53:54;;;;;;;13.80;5.78;;;37.20;29.20;;;;;;5049579;28;20442;-73
2022/07/21 09:56:21;;;;;;;7.93;5.45;;;37.30;28.90;;;;;;5037602;28;20071;-73
2022/07/21 09:58:52;;;;;;;8.27;5.47;;;37.60;28.30;;;;;;5043431;28;20446;-74
2022/07/21 10:01:18;;;;;;;10.25;4.90;;;38.10;27.60;;;;;;5045559;28;20039;-72
2022/07/21 10:03:45;;;;;;;4.70;4.20;;;38.40;26.80;;;;;;5036975;28;20579;-73
2022/07/21 10:06:13;;;;;;;12.75;4.07;;;38.40;26.20;;;;;;5019332;28;20017;-73
2022/07/21 10:08:39;;;;;;;13.75;4.80;;;38.40;26.00;;;;;;5026722;28;20503;-72
2022/07/21 10:11:07;;;;;;;6.00;4.47;;;38.20;27.10;;;;;;5043675;28;20040;-72
2022/07/21 10:13:33;;;;;;;8.75;4.95;;;38.10;27.00;;;;;;5019921;28;20542;-71
2022/07/21 10:15:59;;;;;;;6.75;4.75;;;38.10;26.90;;;;;;5049619;28;20288;-70
2022/07/21 10:18:37;;;;;;;8.02;4.50;;;38.20;26.80;;;;;;5038080;28;20059;-71
2022/07/21 10:21:21;;;;;;;6.95;4.38;;;38.20;27.10;;;;;;5043256;28;20104;-73
2022/07/21 10:23:53;;;;;;;8.63;5.78;;;38.00;27.40;;;;;;5052381;28;20517;-73
2022/07/21 10:26:19;;;;;;;9.32;5.38;;;37.90;27.60;;;;;;5040634;28;20066;-72
2022/07/21 10:28:45;;;;;;;12.45;5.22;;;38.30;27.30;;;;;;5127201;22;20052;-73
2022/07/21 10:31:15;;;;;;;8.43;5.93;;;38.20;27.50;;;;;;5040899;28;20022;-74
2022/07/21 10:33:49;;;;;;;6.07;4.57;;;37.60;27.80;;;;;;5048316;28;20035;-73
2022/07/21 10:36:27;;;;;;;9.43;5.60;;;37.60;28.00;;;;;;5003212;28;20017;-73
2022/07/21 10:39:17;;;;;;;9.10;5.03;;;37.40;28.10;;;;;;5043242;28;20029;-73
2022/07/21 10:41:45;;;;;;;9.30;4.47;;;37.20;28.10;;;;;;5035077;28;20086;-74
2022/07/21 10:44:30;;;;;;;12.30;5.93;;;36.70;28.90;;;;;;5022787;28;20513;-73
2022/07/21 10:47:07;;;;;;;7.95;5.07;;;36.00;29.90;;;;;;5046315;28;20060;-73
2022/07/21 10:49:48;;;;;;;4.93;3.80;;;;;;;;;;5041516;28;20025;-71
2022/07/21 10:52:45;;;;;;;14.85;10.18;;;;;;;;;;5022669;28;20028;-75
2022/07/21 10:55:11;;;;;;;7.78;4.50;;;;;;;;;;5006167;28;20045;-73
2022/07/21 10:57:47;;;;;;;8.40;4.03;;;;;;;;;;5046481;28;20029;-74
2022/07/21 11:00:17;;;;;;;6.00;4.32;;;;;;;;;;5019204;28;20044;-71
2022/07/21 11:02:43;;;;;;;8.98;4.63;;;;;;;;;;5025891;28;20057;-73
2022/07/21 11:05:09;;;;;;;5.55;4.22;;;;;;;;;;5023913;28;20528;-74
2022/07/21 11:07:54;;;;;;;29.80;21.40;;;;;;;;;;5035840;28;20486;-72
2022/07/21 11:10:21;;;;;;;16.80;11.10;;;34.20;31.50;;;;;;5021404;28;20025;-72
2022/07/21 11:12:57;;;;;;;14.57;9.82;;;34.10;32.90;;;;;;5051605;28;20039;-74
2022/07/21 11:15:42;;;;;;;15.52;8.20;;;34.10;33.90;;;;;;5038188;28;20040;-73
2022/07/21 11:18:08;;;;;;;8.13;6.40;;;34.00;34.30;;;;;;5047587;28;20108;-71
2022/07/21 11:20:34;;;;;;;16.05;10.00;;;34.00;34.40;;;;;;5038349;28;20064;-74
2022/07/21 11:23:02;;;;;;;11.02;5.65;;;34.20;34.70;;;;;;5023612;28;20044;-76
2022/07/21 11:25:29;;;;;;;11.43;5.60;;;34.00;34.80;;;;;;5045240;28;20021;-73
2022/07/21 11:27:55;;;;;;;15.20;8.18;;;34.00;34.80;;;;;;5033670;28;20022;-72
2022/07/21 11:30:20;;;;;;;19.90;13.20;;;34.00;35.00;;;;;;5046616;28;20033;-75
2022/07/21 11:32:47;;;;;;;13.00;6.90;;;34.20;35.20;;;;;;5039444;28;20025;-74
2022/07/21 11:35:13;;;;;;;15.40;8.82;;;34.20;34.80;;;;;;5021630;28;20025;-73
2022/07/21 11:37:44;;;;;;;13.68;5.70;;;33.90;35.50;;;;;;5028418;28;20078;-72
2022/07/21 11:40:18;;;;;;;;;;;34.00;35.50;;;;;;5034930;28;20096;-74
2022/07/21 11:42:47;;;;;;;22.38;12.35;;;33.90;35.50;;;;;;5042583;28;19912;-73
2022/07/21 11:45:14;;;;;;;15.40;7.55;;;33.50;36.30;;;;;;5042807;28;20025;-72
2022/07/21 11:47:40;;;;;;;20.85;10.80;;;33.10;37.10;;;;;;5034656;28;20033;-73
2022/07/21 11:50:09;;;;;;;13.10;7.53;;;32.90;38.00;;;;;;5047595;28;20029;-71
2022/07/21 11:52:39;;;;;;;15.63;9.27;;;32.80;38.40;;;;;;5037555;28;20021;-74
2022/07/21 11:55:12;;;;;;;11.13;6.03;;;32.50;38.70;;;;;;5039877;28;20048;-71
2022/07/21 11:57:42;;;;;;;11.43;8.57;;;32.70;38.70;;;;;;5045729;28;20025;-70
2022/07/21 12:00:08;;;;;;;16.07;10.77;;;32.70;38.50;;;;;;5016553;28;20017;-71
2022/07/21 12:02:34;;;;;;;11.93;8.35;;;32.70;38.80;;;;;;5044281;28;20036;-71
2022/07/21 12:05:03;;;;;;;12.32;8.00;;;32.70;38.90;;;;;;5039046;28;20029;-72
2022/07/21 12:07:41;;;;;;;14.75;7.68;;;32.50;39.40;;;;;;5035719;28;20018;-72
2022/07/21 12:10:13;;;;;;;6.43;4.70;;;32.50;40.00;;;;;;5047111;28;20019;-73
2022/07/21 12:12:43;;;;;;;7.70;5.07;;;32.70;39.40;;;;;;5038062;28;20021;-72
2022/07/21 12:15:18;;;;;;;5.97;5.27;;;32.80;38.80;;;;;;5038935;28;20495;-71
2022/07/21 12:17:48;;;;;;;8.75;5.38;;;32.70;38.40;;;;;;5046251;28;20251;-73
2022/07/21 12:20:22;;;;;;;9.63;6.82;;;32.40;39.20;;;;;;5018618;28;20394;-73
2022/07/21 12:22:49;;;;;;;9.25;7.68;;;32.10;39.70;;;;;;5042183;28;20021;-73
2022/07/21 12:25:16;;;;;;;20.10;7.28;;;31.90;39.80;;;;;;5042844;28;20025;-73
2022/07/21 12:27:46;;;;;;;9.73;6.72;;;31.90;40.10;;;;;;5033971;28;20037;-73
2022/07/21 12:30:32;;;;;;;9.65;6.93;;;32.00;39.70;;;;;;5017738;28;20135;-73
2022/07/21 12:33:10;;;;;;;6.95;4.50;;;32.00;39.60;;;;;;5040890;28;20038;-73
2022/07/21 12:35:38;;;;;;;5.13;3.75;;;31.70;40.30;;;;;;5045918;28;20025;-74
2022/07/21 12:38:15;;;;;;;6.50;5.47;;;31.50;40.50;;;;;;5033228;28;20021;-74
2022/07/21 12:40:45;;;;;;;5.75;5.03;;;31.20;41.20;;;;;;5042967;28;20428;-73
2022/07/21 12:43:14;;;;;;;6.40;5.05;;;31.30;41.70;;;;;;5042176;28;20546;-73
2022/07/21 12:45:56;;;;;;;7.18;4.90;;;31.50;41.20;;;;;;5034633;28;20045;-73
2022/07/21 12:48:22;;;;;;;5.40;4.90;;;31.20;41.60;;;;;;5029725;28;20033;-73
2022/07/21 12:51:15;;;;;;;8.25;5.43;;;31.00;41.80;;;;;;5042424;28;20022;-73
2022/07/21 12:53:45;;;;;;;6.13;4.55;;;31.10;41.60;;;;;;5046355;28;20028;-73
2022/07/21 12:56:14;;;;;;;6.22;4.32;;;31.20;42.10;;;;;;5033688;28;20017;-73
2022/07/21 12:58:40;;;;;;;5.28;4.30;;;31.40;41.30;;;;;;5042347;28;20030;-74